Zima, Russia
Current Conditions -  °F | °C
As of 10:00 AM on Tuesday 21 Oct 2014 (Local Time) from UIBB Reporting Station
Broken Clouds Broken Clouds  
Wind Chill: 14°   Ceiling: 20000
Heat Index: 25°   Visibility: 6mi
Dew Point: 12°   Wind: 11mph
Humidity: 59%   Direction: 140°SE
Pressure: 29.83"   Gusts: NA
Location:  53.93°N, 102.04°E
Report Text: UIBB 210200Z 14005MPS 9999 FEW100 BKN200 M04/M11 Q1010 NOSIGRMK QFE715/0953 30CLRD60
Loading
Personal Weather Stations






























Interactive Weather Map
Tropical Storm Tracking
New forecast layout! Learn more

10-Day Weather Forecast

Advertisements
Track Severe Weather on mobile